createdAt,value
2019-06-25T00:00:49.430Z,4.50
2019-06-25T00:01:48.506Z,4.70
2019-06-25T00:02:56.520Z,4.80
2019-06-25T00:04:00.311Z,4.30
2019-06-25T00:05:02.863Z,4.50
2019-06-25T00:06:12.913Z,4.60
2019-06-25T00:07:22.132Z,4.50
2019-06-25T00:08:27.768Z,4.50
2019-06-25T00:09:32.283Z,4.60
2019-06-25T00:10:50.413Z,4.20
2019-06-25T00:11:49.399Z,4.30
2019-06-25T00:12:46.639Z,4.70
2019-06-25T00:13:47.771Z,4.40
2019-06-25T00:14:52.796Z,4.60
2019-06-25T00:16:16.867Z,4.50
2019-06-25T00:17:10.113Z,4.70
2019-06-25T00:18:26.197Z,4.40
2019-06-25T00:19:19.348Z,4.80
2019-06-25T00:20:29.794Z,4.80
2019-06-25T00:21:41.373Z,4.60
2019-06-25T00:22:35.752Z,5.00
2019-06-25T00:23:45.687Z,4.70
2019-06-25T00:24:39.959Z,4.60
2019-06-25T00:26:00.056Z,4.50
2019-06-25T00:26:58.208Z,4.80
2019-06-25T00:28:06.422Z,4.70
2019-06-25T00:29:18.391Z,4.60
2019-06-25T00:30:26.509Z,4.60
2019-06-25T00:31:25.775Z,4.80
2019-06-25T00:32:33.771Z,4.70
2019-06-25T00:33:31.418Z,4.80
2019-06-25T00:35:02.763Z,4.60
2019-06-25T00:35:43.211Z,4.60
2019-06-25T00:36:58.372Z,4.80
2019-06-25T00:37:57.356Z,4.70
2019-06-25T00:39:14.565Z,4.30
2019-06-25T00:40:09.665Z,4.40
2019-06-25T00:41:13.758Z,4.70
2019-06-25T00:42:56.987Z,4.70
2019-06-25T00:43:39.995Z,4.80
2019-06-25T00:44:25.153Z,4.90
2019-06-25T00:45:34.114Z,4.70
2019-06-25T00:47:08.380Z,5.00
2019-06-25T00:47:45.340Z,4.70
2019-06-25T00:48:57.429Z,4.70
2019-06-25T00:50:11.569Z,4.80
2019-06-25T00:51:35.027Z,4.60
2019-06-25T00:52:31.756Z,4.60
2019-06-25T00:53:07.905Z,4.80
2019-06-25T00:54:40.984Z,4.70
2019-06-25T00:55:19.797Z,4.60
2019-06-25T00:56:20.008Z,4.70
2019-06-25T00:57:35.272Z,4.60
2019-06-25T00:58:40.300Z,5.00
2019-06-25T01:00:44.616Z,5.00
2019-06-25T01:01:21.168Z,4.90
2019-06-25T01:03:34.803Z,4.80
2019-06-25T01:04:28.465Z,4.60
2019-06-25T01:05:43.312Z,4.70
2019-06-25T01:07:13.426Z,5.10
2019-06-25T01:07:49.063Z,4.50
2019-06-25T01:08:33.402Z,5.30
2019-06-25T01:11:05.262Z,4.70
2019-06-25T01:11:23.287Z,4.60
2019-06-25T01:13:01.797Z,4.70
2019-06-25T01:14:09.381Z,4.50
2019-06-25T01:15:11.287Z,4.60
2019-06-25T01:16:16.766Z,4.40
2019-06-25T01:17:29.778Z,4.60
2019-06-25T01:18:47.191Z,4.60
2019-06-25T01:19:30.215Z,4.90
2019-06-25T01:20:24.472Z,4.70
2019-06-25T01:22:01.139Z,4.80
2019-06-25T01:22:57.158Z,4.50
2019-06-25T01:23:49.583Z,4.40
2019-06-25T01:25:10.683Z,5.40
2019-06-25T01:25:54.822Z,5.00
2019-06-25T01:27:23.598Z,4.70
2019-06-25T01:28:11.113Z,4.80
2019-06-25T01:29:12.042Z,4.30
2019-06-25T01:30:28.358Z,4.50
2019-06-25T01:31:24.651Z,4.60
2019-06-25T01:32:43.088Z,4.40
2019-06-25T01:33:39.002Z,4.50
2019-06-25T01:34:56.426Z,4.60
2019-06-25T01:35:38.914Z,4.80
2019-06-25T01:37:19.879Z,4.70
2019-06-25T01:37:48.141Z,4.80
2019-06-25T01:39:01.670Z,4.60
2019-06-25T01:39:58.087Z,4.70
2019-06-25T01:41:02.907Z,4.60
2019-06-25T01:42:18.525Z,4.70
2019-06-25T01:43:38.354Z,4.40
2019-06-25T01:44:31.817Z,4.40
2019-06-25T01:45:38.265Z,4.50
2019-06-25T01:46:37.349Z,4.40
2019-06-25T01:47:44.522Z,4.60
2019-06-25T01:48:50.595Z,4.20
2019-06-25T01:49:41.979Z,4.50
2019-06-25T01:51:00.415Z,4.70
2019-06-25T01:51:54.281Z,4.70
2019-06-25T01:53:03.916Z,4.50
2019-06-25T01:54:12.108Z,4.40
2019-06-25T01:55:30.759Z,4.50
2019-06-25T01:56:31.069Z,4.80
2019-06-25T01:57:19.502Z,5.10
2019-06-25T01:58:55.147Z,4.80
2019-06-25T01:59:44.300Z,4.60
2019-06-25T02:00:54.751Z,4.90
2019-06-25T02:01:47.084Z,4.60
2019-06-25T02:02:53.646Z,4.50
2019-06-25T02:04:16.085Z,4.50
2019-06-25T02:05:19.975Z,4.60
2019-06-25T02:06:34.149Z,4.80
2019-06-25T02:07:11.074Z,4.20
2019-06-25T02:08:22.571Z,4.60
2019-06-25T02:09:46.108Z,4.40
2019-06-25T02:10:44.885Z,4.60
2019-06-25T02:11:48.579Z,4.40
2019-06-25T02:12:51.148Z,4.70
2019-06-25T02:13:47.571Z,4.50
2019-06-25T02:14:56.592Z,4.40
2019-06-25T02:16:07.961Z,4.60
2019-06-25T02:17:20.868Z,4.50
2019-06-25T02:18:34.086Z,4.50
2019-06-25T02:19:21.497Z,4.60
2019-06-25T02:20:20.377Z,4.60
2019-06-25T02:21:30.324Z,4.20
2019-06-25T02:22:39.746Z,4.60
2019-06-25T02:23:43.339Z,4.60
2019-06-25T02:24:41.921Z,4.40
2019-06-25T02:26:11.827Z,4.10
2019-06-25T02:26:49.401Z,4.20
2019-06-25T02:28:07.951Z,4.10
2019-06-25T02:29:03.036Z,4.30
2019-06-25T02:30:22.916Z,4.40
2019-06-25T02:31:36.431Z,4.30
2019-06-25T02:32:41.345Z,4.10
2019-06-25T02:33:33.168Z,4.00
2019-06-25T02:34:48.445Z,4.30
2019-06-25T02:35:47.621Z,4.30
2019-06-25T02:36:54.902Z,4.10
2019-06-25T02:37:51.937Z,4.00
2019-06-25T02:39:00.851Z,4.20
2019-06-25T02:40:07.615Z,4.10
2019-06-25T02:41:12.739Z,4.30
2019-06-25T02:42:22.786Z,4.10
2019-06-25T02:43:21.358Z,4.20
2019-06-25T02:44:36.825Z,4.20
2019-06-25T02:45:23.316Z,4.20
2019-06-25T02:46:37.455Z,4.10
2019-06-25T02:47:53.539Z,4.40
2019-06-25T02:48:59.482Z,4.40
2019-06-25T02:50:09.629Z,4.10
2019-06-25T02:51:06.883Z,4.40
2019-06-25T02:52:00.837Z,4.30
2019-06-25T02:53:15.086Z,4.70
2019-06-25T02:54:24.098Z,4.40
2019-06-25T02:55:21.954Z,4.40
2019-06-25T02:56:28.120Z,4.40
2019-06-25T02:57:46.439Z,4.50
2019-06-25T02:58:41.019Z,4.50
2019-06-25T02:59:46.459Z,4.20
2019-06-25T03:00:54.345Z,4.60
2019-06-25T03:01:54.887Z,4.40
2019-06-25T03:03:03.783Z,4.60
2019-06-25T03:04:07.574Z,4.50
2019-06-25T03:05:14.748Z,4.40
2019-06-25T03:06:11.686Z,4.50
2019-06-25T03:07:22.443Z,4.40
2019-06-25T03:08:35.150Z,4.60
2019-06-25T03:09:38.227Z,4.50
2019-06-25T03:10:40.279Z,4.20
2019-06-25T03:11:46.943Z,4.70
2019-06-25T03:12:47.359Z,4.60
2019-06-25T03:14:02.631Z,4.70
2019-06-25T03:15:04.066Z,4.40
2019-06-25T03:16:12.059Z,4.60
2019-06-25T03:17:08.686Z,4.50
2019-06-25T03:18:18.842Z,4.60
2019-06-25T03:19:23.449Z,4.40
2019-06-25T03:20:24.415Z,4.30
2019-06-25T03:21:30.124Z,4.30
2019-06-25T03:22:42.209Z,4.80
2019-06-25T03:23:43.131Z,4.40
2019-06-25T03:24:42.012Z,4.30
2019-06-25T03:25:54.618Z,4.20
2019-06-25T03:27:01.588Z,4.10
2019-06-25T03:28:06.609Z,4.40
2019-06-25T03:29:11.843Z,4.30
2019-06-25T03:30:09.912Z,4.30
2019-06-25T03:31:53.787Z,4.20
2019-06-25T03:32:25.993Z,4.30
2019-06-25T03:33:33.893Z,4.20
2019-06-25T03:34:46.182Z,4.30
2019-06-25T03:35:45.266Z,4.20
2019-06-25T03:36:53.264Z,4.20
2019-06-25T03:37:54.909Z,4.70
2019-06-25T03:39:13.754Z,4.40
2019-06-25T03:39:59.836Z,4.60
2019-06-25T03:41:04.043Z,4.40
2019-06-25T03:42:13.056Z,4.30
2019-06-25T03:43:21.899Z,4.30
2019-06-25T03:44:30.889Z,4.20
2019-06-25T03:45:32.026Z,4.30
2019-06-25T03:46:40.322Z,4.70
2019-06-25T03:47:46.371Z,4.50
2019-06-25T03:48:51.502Z,4.30
2019-06-25T03:49:57.855Z,4.60
2019-06-25T03:51:01.344Z,4.30
2019-06-25T03:52:09.848Z,4.40
2019-06-25T03:53:18.571Z,4.40
2019-06-25T03:54:14.061Z,4.40
2019-06-25T03:55:40.078Z,4.70
2019-06-25T03:56:29.231Z,4.70
2019-06-25T03:57:30.466Z,4.60
2019-06-25T03:58:41.226Z,4.80
2019-06-25T03:59:46.555Z,4.50
2019-06-25T04:00:55.205Z,4.50
2019-06-25T04:01:56.299Z,4.60
2019-06-25T04:03:03.483Z,4.10
2019-06-25T04:04:17.610Z,5.00
2019-06-25T04:05:19.564Z,4.40
2019-06-25T04:06:16.906Z,4.50
2019-06-25T04:07:18.867Z,4.50
2019-06-25T04:08:33.210Z,4.70
2019-06-25T04:09:27.074Z,4.60
2019-06-25T04:10:42.332Z,5.00
2019-06-25T04:11:43.052Z,4.50
2019-06-25T04:12:46.541Z,4.50
2019-06-25T04:13:58.222Z,4.80
2019-06-25T04:15:09.903Z,4.60
2019-06-25T04:16:07.555Z,4.50
2019-06-25T04:17:18.724Z,4.50
2019-06-25T04:18:15.683Z,4.60
2019-06-25T04:19:23.654Z,4.70
2019-06-25T04:20:31.032Z,4.40
2019-06-25T04:21:37.696Z,4.00
2019-06-25T04:22:47.429Z,4.60
2019-06-25T04:23:44.876Z,4.40
2019-06-25T04:24:52.051Z,4.50
2019-06-25T04:25:57.445Z,4.20
2019-06-25T04:27:01.284Z,4.60
2019-06-25T04:28:06.924Z,4.40
2019-06-25T04:29:12.763Z,4.30
2019-06-25T04:30:14.621Z,4.90
2019-06-25T04:31:25.827Z,4.70
2019-06-25T04:32:37.875Z,4.70
2019-06-25T04:33:35.733Z,4.30
2019-06-25T04:34:41.781Z,4.20
2019-06-25T04:35:48.143Z,4.10
2019-06-25T04:37:03.436Z,4.30
2019-06-25T04:38:02.596Z,3.90
2019-06-25T04:39:01.983Z,4.10
2019-06-25T04:40:16.432Z,3.90
2019-06-25T04:41:15.206Z,4.20
2019-06-25T04:42:24.527Z,4.20
2019-06-25T04:43:28.635Z,4.10
2019-06-25T04:44:33.388Z,4.00
2019-06-25T04:45:45.138Z,4.20
2019-06-25T04:46:46.270Z,4.30
2019-06-25T04:47:55.694Z,3.90
2019-06-25T04:48:54.885Z,3.90
2019-06-25T04:49:58.369Z,4.40
2019-06-25T04:51:13.537Z,3.90
2019-06-25T04:52:14.766Z,4.40
2019-06-25T04:53:22.465Z,4.10
2019-06-25T04:54:23.998Z,4.10
2019-06-25T04:55:18.473Z,4.30
2019-06-25T04:56:33.331Z,3.80
2019-06-25T04:57:41.220Z,3.80
2019-06-25T04:58:51.876Z,3.80
2019-06-25T04:59:54.136Z,3.90
2019-06-25T05:01:01.210Z,4.00
2019-06-25T05:02:02.141Z,4.00
2019-06-25T05:03:09.516Z,4.00
2019-06-25T05:04:18.764Z,4.30
2019-06-25T05:05:23.866Z,3.90
2019-06-25T05:06:28.487Z,4.10
2019-06-25T05:07:36.682Z,4.10
2019-06-25T05:08:46.005Z,3.90
2019-06-25T05:09:40.075Z,4.10
2019-06-25T05:10:46.232Z,4.20
2019-06-25T05:11:57.914Z,3.70
2019-06-25T05:12:58.744Z,4.10
2019-06-25T05:14:09.416Z,4.10
2019-06-25T05:15:19.428Z,4.00
2019-06-25T05:16:11.959Z,3.80
2019-06-25T05:17:40.228Z,3.90
2019-06-25T05:18:33.508Z,4.00
2019-06-25T05:19:45.776Z,4.00
2019-06-25T05:20:45.783Z,3.90
2019-06-25T05:21:44.867Z,3.90
2019-06-25T05:22:49.891Z,4.10
2019-06-25T05:24:04.862Z,4.10
2019-06-25T05:24:59.323Z,4.00
2019-06-25T05:26:08.521Z,3.90
2019-06-25T05:27:26.680Z,3.90
2019-06-25T05:28:24.433Z,3.60
2019-06-25T05:29:22.185Z,4.10
2019-06-25T05:30:36.532Z,4.00
2019-06-25T05:31:38.686Z,3.90
2019-06-25T05:32:33.371Z,3.70
2019-06-25T05:33:53.449Z,3.70
2019-06-25T05:34:53.043Z,3.50
2019-06-25T05:36:04.417Z,3.70
2019-06-25T05:36:55.824Z,3.50
2019-06-25T05:38:07.920Z,3.80
2019-06-25T05:39:23.999Z,3.60
2019-06-25T05:40:10.794Z,3.60
2019-06-25T05:41:21.247Z,3.60
2019-06-25T05:42:33.752Z,3.80
2019-06-25T05:43:49.828Z,3.60
2019-06-25T05:44:45.253Z,3.80
2019-06-25T05:45:54.148Z,4.10
2019-06-25T05:46:51.083Z,3.70
2019-06-25T05:48:01.970Z,3.70
2019-06-25T05:48:53.862Z,3.80
2019-06-25T05:49:54.792Z,3.60
2019-06-25T05:51:19.063Z,3.70
2019-06-25T05:52:24.088Z,3.90
2019-06-25T05:53:26.666Z,3.90
2019-06-25T05:54:30.854Z,3.90
2019-06-25T05:55:28.617Z,4.00
2019-06-25T05:56:57.499Z,3.50
2019-06-25T05:57:51.462Z,3.90
2019-06-25T05:59:03.516Z,3.80
2019-06-25T05:59:57.826Z,3.60
2019-06-25T06:01:08.176Z,3.70
2019-06-25T06:02:10.740Z,3.70
2019-06-25T06:03:28.473Z,4.00
2019-06-25T06:04:31.775Z,4.10
2019-06-25T06:06:00.024Z,3.90
2019-06-25T06:06:58.392Z,3.90
2019-06-25T06:07:31.870Z,3.70
2019-06-25T06:09:16.932Z,4.10
2019-06-25T06:10:15.096Z,3.80
2019-06-25T06:11:34.048Z,3.90
2019-06-25T06:13:27.405Z,3.60
2019-06-25T06:14:12.357Z,3.70
2019-06-25T06:15:44.517Z,4.10
2019-06-25T06:16:45.582Z,3.80
2019-06-25T06:18:03.691Z,4.00
2019-06-25T06:18:55.907Z,4.10
2019-06-25T06:20:05.851Z,4.10
2019-06-25T06:21:03.921Z,3.80
2019-06-25T06:22:00.846Z,3.90
2019-06-25T06:23:04.229Z,3.80
2019-06-25T06:24:14.378Z,3.90
2019-06-25T06:25:01.431Z,3.80
2019-06-25T06:26:17.867Z,3.90
2019-06-25T06:27:22.590Z,3.70
2019-06-25T06:28:26.587Z,4.10
2019-06-25T06:29:36.732Z,3.90
2019-06-25T06:30:37.975Z,4.10
2019-06-25T06:31:39.921Z,3.60
2019-06-25T06:32:58.257Z,3.90
2019-06-25T06:34:02.369Z,3.80
2019-06-25T06:34:59.398Z,4.00
2019-06-25T06:36:07.390Z,4.10
2019-06-25T06:37:03.537Z,4.00
2019-06-25T06:38:10.784Z,4.20
2019-06-25T06:39:13.765Z,3.90
2019-06-25T06:40:19.714Z,4.50
2019-06-25T06:41:20.940Z,3.60
2019-06-25T06:42:27.002Z,3.90
2019-06-25T06:43:26.996Z,4.10
2019-06-25T06:44:41.134Z,3.40
2019-06-25T06:45:55.786Z,3.90
2019-06-25T06:46:47.501Z,3.80
2019-06-25T06:47:55.808Z,3.70
2019-06-25T06:48:57.856Z,3.70
2019-06-25T06:50:11.514Z,3.80
2019-06-25T06:51:14.972Z,4.10
2019-06-25T06:52:16.922Z,3.90
2019-06-25T06:53:29.115Z,3.90
2019-06-25T06:54:28.303Z,3.90
2019-06-25T06:55:44.701Z,3.80
2019-06-25T06:56:53.199Z,3.80
2019-06-25T06:57:53.619Z,3.70
2019-06-25T06:58:55.163Z,4.10
2019-06-25T06:59:59.878Z,4.00
2019-06-25T07:00:59.946Z,4.10
2019-06-25T07:02:13.102Z,3.90
2019-06-25T07:03:23.242Z,3.70
2019-06-25T07:04:18.028Z,3.90
2019-06-25T07:05:27.255Z,4.00
2019-06-25T07:06:26.443Z,3.60
2019-06-25T07:07:50.920Z,3.70
2019-06-25T07:08:41.504Z,3.80
2019-06-25T07:09:51.036Z,4.00
2019-06-25T07:10:45.100Z,3.70
2019-06-25T07:12:16.445Z,3.50
2019-06-25T07:12:59.454Z,3.70
2019-06-25T07:14:19.119Z,4.10
2019-06-25T07:15:34.285Z,3.80
2019-06-25T07:16:31.217Z,3.60
2019-06-25T07:17:29.690Z,3.70
2019-06-25T07:18:37.373Z,3.70
2019-06-25T07:19:50.597Z,3.60
2019-06-25T07:20:46.305Z,3.60
2019-06-25T07:22:27.368Z,3.70
2019-06-25T07:23:07.301Z,3.70
2019-06-25T07:24:08.541Z,3.90
2019-06-25T07:25:34.863Z,3.50
2019-06-25T07:26:13.365Z,3.90
2019-06-25T07:27:05.489Z,3.70
2019-06-25T07:28:18.813Z,3.60
2019-06-25T07:29:20.351Z,3.70
2019-06-25T07:30:35.718Z,3.80
2019-06-25T07:31:34.390Z,3.70
2019-06-25T07:32:46.705Z,3.70
2019-06-25T07:33:46.797Z,3.90
2019-06-25T07:34:53.047Z,3.60
2019-06-25T07:35:56.948Z,3.80
2019-06-25T07:37:07.299Z,4.00
2019-06-25T07:38:09.254Z,3.60
2019-06-25T07:39:13.155Z,3.70
2019-06-25T07:40:16.843Z,3.90
2019-06-25T07:41:33.746Z,3.60
2019-06-25T07:42:31.086Z,3.60
2019-06-25T07:43:35.598Z,3.70
2019-06-25T07:44:49.059Z,3.80
2019-06-25T07:45:44.728Z,3.80
2019-06-25T07:46:51.287Z,4.00
2019-06-25T07:47:55.597Z,4.00
2019-06-25T07:49:07.484Z,3.80
2019-06-25T07:50:05.234Z,3.60
2019-06-25T07:51:18.988Z,3.60
2019-06-25T07:52:21.317Z,3.50
2019-06-25T07:53:26.558Z,3.60
2019-06-25T07:54:32.304Z,3.80
2019-06-25T07:55:34.149Z,3.90
2019-06-25T07:56:41.330Z,3.90
2019-06-25T07:57:50.034Z,3.90
2019-06-25T07:59:00.998Z,3.70
2019-06-25T08:00:03.876Z,3.70
2019-06-25T08:01:02.863Z,3.60
2019-06-25T08:02:31.432Z,3.30
2019-06-25T08:03:13.514Z,3.40
2019-06-25T08:04:24.425Z,3.50
2019-06-25T08:05:22.540Z,3.70
2019-06-25T08:07:05.802Z,3.40
2019-06-25T08:08:18.543Z,3.60
2019-06-25T08:08:55.127Z,3.70
2019-06-25T08:09:42.949Z,3.40
2019-06-25T08:11:01.286Z,3.00
2019-06-25T08:11:57.738Z,3.40
2019-06-25T08:13:19.216Z,3.30
2019-06-25T08:14:19.628Z,3.30
2019-06-25T08:15:11.040Z,3.40
2019-06-25T08:16:24.047Z,3.40
2019-06-25T08:17:26.622Z,3.30
2019-06-25T08:18:29.628Z,3.50
2019-06-25T08:19:42.194Z,3.60
2019-06-25T08:20:54.083Z,3.40
2019-06-25T08:22:04.331Z,3.20
2019-06-25T08:22:56.248Z,3.00
2019-06-25T08:24:03.223Z,3.20
2019-06-25T08:25:09.161Z,3.20
2019-06-25T08:26:06.097Z,3.00
2019-06-25T08:27:10.405Z,3.10
2019-06-25T08:28:23.827Z,2.90
2019-06-25T08:29:40.116Z,2.80
2019-06-25T08:30:37.770Z,3.00
2019-06-25T08:31:39.416Z,2.80
2019-06-25T08:32:43.023Z,3.10
2019-06-25T08:33:50.426Z,3.10
2019-06-25T08:35:03.402Z,2.90
2019-06-25T08:36:07.190Z,2.90
2019-06-25T08:37:08.735Z,2.90
2019-06-25T08:38:03.934Z,2.90
2019-06-25T08:39:15.712Z,2.90
2019-06-25T08:40:25.342Z,3.00
2019-06-25T08:41:28.630Z,2.80
2019-06-25T08:42:42.458Z,3.20
2019-06-25T08:43:42.982Z,3.00
2019-06-25T08:44:40.117Z,2.90
2019-06-25T08:45:55.895Z,2.70
2019-06-25T08:46:59.488Z,2.90
2019-06-25T08:48:03.283Z,3.10
2019-06-25T08:49:06.671Z,2.70
2019-06-25T08:50:25.413Z,2.60
2019-06-25T08:51:24.089Z,2.90
2019-06-25T08:52:26.656Z,2.90
2019-06-25T08:53:32.499Z,3.00
2019-06-25T08:54:38.442Z,2.90
2019-06-25T08:55:50.330Z,2.80
2019-06-25T08:56:49.723Z,2.80
2019-06-25T08:57:52.798Z,2.70
2019-06-25T08:59:00.384Z,2.70
2019-06-25T09:00:14.013Z,2.70
2019-06-25T09:01:06.441Z,2.90
2019-06-25T09:02:18.785Z,2.70
2019-06-25T09:03:26.839Z,2.70
2019-06-25T09:04:22.134Z,2.60
2019-06-25T09:05:45.175Z,2.80
2019-06-25T09:06:33.919Z,2.90
2019-06-25T09:07:42.363Z,2.50
2019-06-25T09:08:52.160Z,2.90
2019-06-25T09:10:01.484Z,2.70
2019-06-25T09:11:00.474Z,2.80
2019-06-25T09:12:01.396Z,2.70
2019-06-25T09:13:08.980Z,2.90
2019-06-25T09:14:12.261Z,2.90
2019-06-25T09:15:22.820Z,2.70
2019-06-25T09:16:34.600Z,2.80
2019-06-25T09:17:28.155Z,2.70
2019-06-25T09:18:38.814Z,2.90
2019-06-25T09:19:49.281Z,2.70
2019-06-25T09:20:45.487Z,2.90
2019-06-25T09:21:56.649Z,2.80
2019-06-25T09:22:59.881Z,2.80
2019-06-25T09:24:21.344Z,2.90
2019-06-25T09:25:13.159Z,2.70
2019-06-25T09:26:22.587Z,2.90
2019-06-25T09:27:19.315Z,2.70
2019-06-25T09:28:23.216Z,2.80
2019-06-25T09:29:35.207Z,3.00
2019-06-25T09:30:44.407Z,2.70
2019-06-25T09:31:46.354Z,2.80
2019-06-25T09:32:46.284Z,2.90
2019-06-25T09:33:53.868Z,3.00
2019-06-25T09:35:13.716Z,3.50
2019-06-25T09:36:06.297Z,2.70
2019-06-25T09:37:22.968Z,2.90
2019-06-25T09:38:19.189Z,2.80
2019-06-25T09:39:23.492Z,2.80
2019-06-25T09:40:33.954Z,2.70
2019-06-25T09:41:33.962Z,3.00
2019-06-25T09:42:38.783Z,2.80
2019-06-25T09:43:39.292Z,2.60
2019-06-25T09:44:52.304Z,2.80
2019-06-25T09:45:59.685Z,3.10
2019-06-25T09:47:02.667Z,2.80
2019-06-25T09:48:14.957Z,3.00
2019-06-25T09:49:18.545Z,2.90
2019-06-25T09:50:18.863Z,3.00
2019-06-25T09:51:27.162Z,2.80
2019-06-25T09:52:32.593Z,2.80
2019-06-25T09:53:40.086Z,2.80
2019-06-25T09:54:47.663Z,2.70
2019-06-25T09:55:54.120Z,3.00
2019-06-25T09:56:55.561Z,3.00
2019-06-25T09:58:05.601Z,2.90
2019-06-25T09:59:26.600Z,2.70
2019-06-25T10:00:08.901Z,2.90
2019-06-25T10:01:25.805Z,2.70
2019-06-25T10:02:23.449Z,2.80
2019-06-25T10:03:29.293Z,2.90
2019-06-25T10:04:35.552Z,2.80
2019-06-25T10:05:34.942Z,2.90
2019-06-25T10:06:49.281Z,2.90
2019-06-25T10:07:52.771Z,2.60
2019-06-25T10:09:02.504Z,2.70
2019-06-25T10:10:02.406Z,3.10
2019-06-25T10:11:00.775Z,2.80
2019-06-25T10:12:08.986Z,2.70
2019-06-25T10:13:14.309Z,2.80
2019-06-25T10:14:31.314Z,3.00
2019-06-25T10:15:20.571Z,2.90
2019-06-25T10:16:33.067Z,2.80
2019-06-25T10:17:39.115Z,3.00
2019-06-25T10:18:43.837Z,2.70
2019-06-25T10:19:52.291Z,3.10
2019-06-25T10:20:47.437Z,2.90
2019-06-25T10:22:06.695Z,3.00
2019-06-25T10:23:12.021Z,2.90
2019-06-25T10:24:20.936Z,2.90
2019-06-25T10:25:20.336Z,2.90
2019-06-25T10:26:20.542Z,2.90
2019-06-25T10:27:27.718Z,2.90
2019-06-25T10:28:38.860Z,3.00
2019-06-25T10:29:42.618Z,3.00
2019-06-25T10:30:52.326Z,3.20
2019-06-25T10:31:57.136Z,3.40
2019-06-25T10:33:02.668Z,3.00
2019-06-25T10:34:08.717Z,2.90
2019-06-25T10:35:15.888Z,3.00
2019-06-25T10:36:14.362Z,2.80
2019-06-25T10:37:18.484Z,3.20
2019-06-25T10:38:30.558Z,2.80
2019-06-25T10:39:30.770Z,2.80
2019-06-25T10:40:30.370Z,3.10
2019-06-25T10:41:35.389Z,3.00
2019-06-25T10:42:47.190Z,2.90
2019-06-25T10:43:54.249Z,2.80
2019-06-25T10:44:57.961Z,3.00
2019-06-25T10:46:08.698Z,2.60
2019-06-25T10:47:04.403Z,3.00
2019-06-25T10:48:25.244Z,2.80
2019-06-25T10:49:23.682Z,3.00
2019-06-25T10:50:34.025Z,2.80
2019-06-25T10:51:41.805Z,3.20
2019-06-25T10:52:43.460Z,2.90
2019-06-25T10:53:47.759Z,3.20
2019-06-25T10:54:51.770Z,2.90
2019-06-25T10:55:53.010Z,2.70
2019-06-25T10:57:11.279Z,2.80
2019-06-25T10:58:10.537Z,2.90
2019-06-25T10:59:10.842Z,3.10
2019-06-25T11:00:09.821Z,3.20
2019-06-25T11:01:22.112Z,3.50
2019-06-25T11:02:29.114Z,3.10
2019-06-25T11:03:30.213Z,3.10
2019-06-25T11:04:37.700Z,3.10
2019-06-25T11:05:39.045Z,3.30
2019-06-25T11:06:57.401Z,3.20
2019-06-25T11:07:55.334Z,3.10
2019-06-25T11:09:01.383Z,3.00
2019-06-25T11:10:08.861Z,3.00
2019-06-25T11:11:14.195Z,3.00
2019-06-25T11:12:21.161Z,3.00
2019-06-25T11:13:28.959Z,2.90
2019-06-25T11:14:24.580Z,3.10
2019-06-25T11:15:40.645Z,3.30
2019-06-25T11:16:33.683Z,3.20
2019-06-25T11:17:43.931Z,3.20
2019-06-25T11:18:57.456Z,3.30
2019-06-25T11:19:56.644Z,3.30
2019-06-25T11:20:56.958Z,3.10
2019-06-25T11:22:02.697Z,3.10
2019-06-25T11:23:17.245Z,3.30
2019-06-25T11:24:16.946Z,3.40
2019-06-25T11:25:17.464Z,3.30
2019-06-25T11:26:23.652Z,3.00
2019-06-25T11:27:37.140Z,3.20
2019-06-25T11:28:47.179Z,3.40
2019-06-25T11:29:41.382Z,3.30
2019-06-25T11:31:00.712Z,3.10
2019-06-25T11:32:09.219Z,3.20
2019-06-25T11:33:00.431Z,3.30
2019-06-25T11:34:00.021Z,3.40
2019-06-25T11:34:57.569Z,3.20
2019-06-25T11:36:21.413Z,3.20
2019-06-25T11:37:23.278Z,3.20
2019-06-25T11:38:30.149Z,3.00
2019-06-25T11:39:30.380Z,3.10
2019-06-25T11:40:31.597Z,3.00
2019-06-25T11:41:41.944Z,3.00
2019-06-25T11:42:47.379Z,3.30
2019-06-25T11:43:59.267Z,3.10
2019-06-25T11:45:09.968Z,3.40
2019-06-25T11:46:03.581Z,3.30
2019-06-25T11:47:19.968Z,3.20
2019-06-25T11:48:22.332Z,3.20
2019-06-25T11:49:34.428Z,3.00
2019-06-25T11:50:35.559Z,3.00
2019-06-25T11:51:24.705Z,3.10
2019-06-25T11:52:50.226Z,3.00
2019-06-25T11:53:46.331Z,3.20
2019-06-25T11:54:58.842Z,3.00
2019-06-25T11:55:44.906Z,3.00
2019-06-25T11:56:52.607Z,3.10
2019-06-25T11:58:33.564Z,2.70
2019-06-25T11:59:16.364Z,2.70
2019-06-25T12:00:15.758Z,2.90
2019-06-25T12:01:21.821Z,3.00
2019-06-25T12:02:20.091Z,2.80
2019-06-25T12:04:53.480Z,3.00
2019-06-25T12:06:29.474Z,3.10
2019-06-25T12:07:24.112Z,3.00
2019-06-25T12:08:03.431Z,2.80
2019-06-25T12:08:52.579Z,2.90
2019-06-25T12:10:24.122Z,2.70
2019-06-25T12:11:38.978Z,3.10
2019-06-25T12:12:28.540Z,3.00
2019-06-25T12:13:24.664Z,2.70
2019-06-25T12:14:51.085Z,2.80
2019-06-25T12:15:33.197Z,2.70
2019-06-25T12:17:04.611Z,2.80
2019-06-25T12:17:37.480Z,2.70
2019-06-25T12:19:25.829Z,2.80
2019-06-25T12:20:05.146Z,2.90
2019-06-25T12:20:58.293Z,2.70
2019-06-25T12:21:56.666Z,2.90
2019-06-25T12:23:09.363Z,2.90
2019-06-25T12:24:12.953Z,2.90
2019-06-25T12:25:34.773Z,3.00
2019-06-25T12:26:40.820Z,2.90
2019-06-25T12:27:38.377Z,2.50
2019-06-25T12:28:37.049Z,2.80
2019-06-25T12:29:40.122Z,3.10
2019-06-25T12:30:52.214Z,2.80
2019-06-25T12:31:59.594Z,2.90
2019-06-25T12:33:05.852Z,2.80
2019-06-25T12:34:14.772Z,2.90
2019-06-25T12:35:25.421Z,2.80
2019-06-25T12:36:39.248Z,3.10
2019-06-25T12:37:32.602Z,2.90
2019-06-25T12:38:27.321Z,2.90
2019-06-25T12:39:38.758Z,3.00
2019-06-25T12:40:35.385Z,3.00
2019-06-25T12:41:48.920Z,2.80
2019-06-25T12:42:51.180Z,2.70
2019-06-25T12:43:53.222Z,2.90
2019-06-25T12:44:57.132Z,2.90
2019-06-25T12:46:01.840Z,3.20
2019-06-25T12:47:04.916Z,3.10
2019-06-25T12:48:15.312Z,3.20
2019-06-25T12:49:23.774Z,2.80
2019-06-25T12:50:37.753Z,2.50
2019-06-25T12:51:29.034Z,2.90
2019-06-25T12:52:35.058Z,2.90
2019-06-25T12:53:57.593Z,3.30
2019-06-25T12:54:54.532Z,2.80
2019-06-25T12:55:56.684Z,2.50
2019-06-25T12:57:15.842Z,2.70
2019-06-25T12:58:06.839Z,2.70
2019-06-25T12:59:23.335Z,2.60
2019-06-25T13:00:20.266Z,2.90
2019-06-25T13:01:19.456Z,3.10
2019-06-25T13:02:32.798Z,2.80
2019-06-25T13:03:36.567Z,2.90
2019-06-25T13:04:37.498Z,3.30
2019-06-25T13:05:53.990Z,2.80
2019-06-25T13:07:06.699Z,3.00
2019-06-25T13:07:56.461Z,3.00
2019-06-25T13:09:14.400Z,3.20
2019-06-25T13:10:10.612Z,3.40
2019-06-25T13:11:12.251Z,2.90
2019-06-25T13:12:25.468Z,3.00
2019-06-25T13:13:19.739Z,3.10
2019-06-25T13:14:42.890Z,3.30
2019-06-25T13:15:35.739Z,3.10
2019-06-25T13:16:40.444Z,3.10
2019-06-25T13:17:47.517Z,3.10
2019-06-25T13:18:39.638Z,3.10
2019-06-25T13:20:18.775Z,2.80
2019-06-25T13:21:11.399Z,2.90
2019-06-25T13:22:24.513Z,2.90
2019-06-25T13:23:12.443Z,3.00
2019-06-25T13:24:11.830Z,2.80
2019-06-25T13:25:29.961Z,2.80
2019-06-25T13:26:35.402Z,2.80
2019-06-25T13:27:37.557Z,2.90
2019-06-25T13:28:53.642Z,2.80
2019-06-25T13:29:57.441Z,2.80
2019-06-25T13:31:03.386Z,2.80
2019-06-25T13:32:01.647Z,2.70
2019-06-25T13:33:10.465Z,2.50
2019-06-25T13:34:13.228Z,2.40
2019-06-25T13:35:20.402Z,2.40
2019-06-25T13:36:25.221Z,2.40
2019-06-25T13:37:40.976Z,2.60
2019-06-25T13:38:22.886Z,2.30
2019-06-25T13:39:56.372Z,2.60
2019-06-25T13:40:57.143Z,2.60
2019-06-25T13:42:03.486Z,2.70
2019-06-25T13:43:13.494Z,2.70
2019-06-25T13:44:08.996Z,2.80
2019-06-25T13:45:23.471Z,2.80
2019-06-25T13:46:09.731Z,2.80
2019-06-25T13:47:30.845Z,3.00
2019-06-25T13:48:24.590Z,2.80
2019-06-25T13:49:26.029Z,2.70
2019-06-25T13:50:29.107Z,2.70
2019-06-25T13:51:46.934Z,2.90
2019-06-25T13:52:51.855Z,2.90
2019-06-25T13:54:02.244Z,3.20
2019-06-25T13:55:05.385Z,3.00
2019-06-25T13:55:57.098Z,3.00
2019-06-25T13:56:50.971Z,3.00
2019-06-25T13:58:09.091Z,3.00
2019-06-25T13:59:25.484Z,3.30
2019-06-25T14:00:27.294Z,3.20
2019-06-25T14:01:34.612Z,3.10
2019-06-25T14:02:35.641Z,3.10
2019-06-25T14:03:33.100Z,3.20
2019-06-25T14:05:04.646Z,3.10
2019-06-25T14:05:45.601Z,3.20
2019-06-25T14:07:11.096Z,3.30
2019-06-25T14:07:58.302Z,3.40
2019-06-25T14:09:02.510Z,3.10
2019-06-25T14:10:06.715Z,3.60
2019-06-25T14:11:36.623Z,3.50
2019-06-25T14:12:31.828Z,3.30
2019-06-25T14:14:08.078Z,3.40
2019-06-25T14:14:45.259Z,3.40
2019-06-25T14:16:10.552Z,3.40
2019-06-25T14:17:12.805Z,3.40
2019-06-25T14:20:12.521Z,3.40
2019-06-25T14:21:55.125Z,3.40
2019-06-25T14:23:46.747Z,3.10
2019-06-25T14:24:07.962Z,3.30
2019-06-25T14:25:13.887Z,3.20
2019-06-25T14:26:14.709Z,3.40
2019-06-25T14:27:57.440Z,3.50
2019-06-25T14:29:01.728Z,3.40
2019-06-25T14:30:13.921Z,3.50
2019-06-25T14:31:16.178Z,3.40
2019-06-25T14:32:03.489Z,3.60
2019-06-25T14:32:45.582Z,3.60
2019-06-25T14:33:53.570Z,3.50
2019-06-25T14:35:26.857Z,3.70
2019-06-25T14:36:00.036Z,3.70
2019-06-25T14:37:08.031Z,3.70
2019-06-25T14:38:36.606Z,3.60
2019-06-25T14:39:43.887Z,3.50